createdAt,value
2019-05-10T00:01:03.438Z,79.28
2019-05-10T00:06:04.949Z,81.38
2019-05-10T00:11:06.500Z,81.55
2019-05-10T00:16:08.123Z,81.47
2019-05-10T00:21:09.555Z,81.77
2019-05-10T00:26:11.098Z,81.68
2019-05-10T00:31:12.419Z,81.04
2019-05-10T00:36:14.048Z,81.35
2019-05-10T00:41:15.553Z,81.66
2019-05-10T00:46:17.087Z,81.87
2019-05-10T00:51:18.586Z,81.71
2019-05-10T00:56:19.879Z,82.17
2019-05-10T01:01:21.263Z,81.99
2019-05-10T01:06:22.792Z,81.76
2019-05-10T01:11:24.272Z,81.50
2019-05-10T01:16:25.781Z,81.62
2019-05-10T01:21:27.301Z,81.77
2019-05-10T01:26:28.797Z,81.74
2019-05-10T01:31:30.345Z,82.17
2019-05-10T01:36:31.815Z,81.61
2019-05-10T01:41:33.403Z,81.05
2019-05-10T01:46:34.779Z,81.56
2019-05-10T01:51:36.191Z,81.30
2019-05-10T01:56:37.727Z,80.94
2019-05-10T02:01:39.094Z,81.10
2019-05-10T02:06:40.652Z,79.96
2019-05-10T02:11:42.115Z,79.49
2019-05-10T02:16:43.539Z,80.06
2019-05-10T02:21:44.952Z,80.35
2019-05-10T02:26:46.317Z,80.12
2019-05-10T02:31:47.862Z,79.86
2019-05-10T02:36:49.383Z,79.78
2019-05-10T02:41:50.858Z,80.40
2019-05-10T02:46:52.286Z,80.57
2019-05-10T02:51:53.778Z,80.02
2019-05-10T02:56:55.384Z,80.04
2019-05-10T03:01:56.927Z,80.35
2019-05-10T03:07:01.758Z,80.40
2019-05-10T03:12:35.979Z,80.65
2019-05-10T03:17:37.240Z,80.55
2019-05-10T03:22:41.758Z,80.05
2019-05-10T03:27:43.251Z,79.82
2019-05-10T03:32:44.776Z,79.85
2019-05-10T03:37:46.138Z,79.53
2019-05-10T03:42:47.725Z,79.22
2019-05-10T03:47:49.208Z,79.48
2019-05-10T03:52:52.316Z,79.85
2019-05-10T03:57:54.209Z,80.14
2019-05-10T04:02:55.726Z,80.15
2019-05-10T04:07:57.102Z,80.04
2019-05-10T04:12:58.517Z,79.97
2019-05-10T04:18:00.029Z,80.17
2019-05-10T04:23:01.461Z,79.97
2019-05-10T04:28:03.033Z,79.61
2019-05-10T04:33:04.518Z,79.55
2019-05-10T04:38:06.040Z,79.24
2019-05-10T04:43:07.576Z,78.97
2019-05-10T04:48:08.973Z,79.02
2019-05-10T04:53:10.495Z,78.35
2019-05-10T04:58:12.041Z,77.63
2019-05-10T05:03:13.570Z,76.52
2019-05-10T05:08:15.074Z,76.17
2019-05-10T05:13:17.566Z,76.00
2019-05-10T05:18:19.062Z,75.34
2019-05-10T05:23:20.624Z,75.01
2019-05-10T05:28:23.195Z,74.90
2019-05-10T05:33:25.548Z,74.56
2019-05-10T05:38:27.092Z,74.09
2019-05-10T05:43:28.628Z,73.31
2019-05-10T05:48:40.030Z,73.08
2019-05-10T05:53:35.774Z,72.86
2019-05-10T05:58:38.101Z,72.44
2019-05-10T06:03:40.556Z,71.05
2019-05-10T06:08:42.104Z,71.21
2019-05-10T06:13:43.545Z,71.19
2019-05-10T06:18:47.395Z,71.61
2019-05-10T06:23:50.311Z,71.46
2019-05-10T06:29:03.772Z,71.84
2019-05-10T06:33:55.334Z,71.56
2019-05-10T06:38:57.020Z,68.80
2019-05-10T06:43:58.476Z,68.42
2019-05-10T06:49:07.214Z,67.30
2019-05-10T06:54:03.361Z,67.16
2019-05-10T06:59:13.435Z,65.85
2019-05-10T07:04:09.664Z,65.36
2019-05-10T07:09:11.199Z,66.00
2019-05-10T07:14:12.716Z,65.78
2019-05-10T07:19:14.264Z,65.44
2019-05-10T07:24:18.319Z,65.25
2019-05-10T07:29:29.779Z,63.02
2019-05-10T07:34:22.664Z,62.33
2019-05-10T07:39:24.054Z,62.55
2019-05-10T07:44:25.621Z,60.82
2019-05-10T07:49:30.234Z,62.47
2019-05-10T07:54:30.688Z,62.86
2019-05-10T07:59:48.667Z,61.55
2019-05-10T08:04:38.294Z,62.52
2019-05-10T08:09:44.765Z,62.82
2019-05-10T08:14:44.543Z,62.17
2019-05-10T08:19:46.260Z,61.03
2019-05-10T08:24:52.904Z,58.45
2019-05-10T08:30:15.836Z,57.59
2019-05-10T08:34:56.162Z,57.48
2019-05-10T08:39:57.820Z,56.06
2019-05-10T08:45:05.309Z,54.73
2019-05-10T08:50:18.457Z,54.53
2019-05-10T08:55:06.158Z,52.95
2019-05-10T09:00:09.115Z,53.68
2019-05-10T09:05:12.435Z,54.12
2019-05-10T09:10:14.348Z,52.00
2019-05-10T09:15:15.832Z,54.11
2019-05-10T09:20:25.931Z,52.31
2019-05-10T09:25:29.313Z,52.72
2019-05-10T09:30:32.397Z,54.06
2019-05-10T09:35:33.239Z,54.11
2019-05-10T09:40:34.856Z,54.78
2019-05-10T09:45:36.419Z,56.56
2019-05-10T09:50:42.074Z,56.58
2019-05-10T09:55:45.746Z,55.77
2019-05-10T10:00:48.548Z,57.04
2019-05-10T10:05:55.218Z,58.02
2019-05-10T10:10:53.388Z,57.79
2019-05-10T10:15:54.760Z,57.63
2019-05-10T10:20:56.301Z,56.28
2019-05-10T10:25:58.105Z,55.00
2019-05-10T10:31:05.137Z,51.09
2019-05-10T10:36:07.005Z,49.84
2019-05-10T10:41:08.249Z,50.89
2019-05-10T10:46:12.538Z,49.26
2019-05-10T10:51:13.346Z,47.81
2019-05-10T10:56:17.644Z,48.66
2019-05-10T11:01:24.626Z,51.51
2019-05-10T11:06:22.686Z,52.26
2019-05-10T11:11:24.226Z,52.43
2019-05-10T11:16:25.788Z,52.68
2019-05-10T11:21:28.606Z,52.69
2019-05-10T11:26:32.766Z,53.05
2019-05-10T11:31:34.165Z,52.69
2019-05-10T11:36:35.609Z,52.70
2019-05-10T11:41:37.119Z,52.07
2019-05-10T11:46:38.658Z,52.45
2019-05-10T11:51:41.374Z,54.20
2019-05-10T11:56:43.044Z,54.46
2019-05-10T12:01:56.860Z,53.65
2019-05-10T12:06:51.403Z,54.65
2019-05-10T12:11:56.734Z,53.76
2019-05-10T12:16:56.550Z,54.58
2019-05-10T12:21:58.048Z,53.53
2019-05-10T12:27:17.248Z,51.62
2019-05-10T12:32:02.950Z,51.87
2019-05-10T12:37:08.312Z,51.69
2019-05-10T12:42:07.981Z,51.06
2019-05-10T12:47:11.328Z,50.35
2019-05-10T12:52:14.137Z,51.97
2019-05-10T12:57:18.262Z,53.24
2019-05-10T13:02:19.732Z,54.86
2019-05-10T13:07:21.244Z,56.40
2019-05-10T13:12:22.937Z,57.20
2019-05-10T13:17:24.365Z,58.72
2019-05-10T13:22:25.926Z,60.91
2019-05-10T13:27:27.381Z,61.87
2019-05-10T13:32:28.884Z,62.04
2019-05-10T13:37:30.391Z,60.73
2019-05-10T13:42:36.441Z,59.88
2019-05-10T13:47:35.354Z,59.11
2019-05-10T13:52:38.910Z,58.60
2019-05-10T13:57:40.280Z,57.19
2019-05-10T14:02:41.765Z,58.12
2019-05-10T14:07:51.051Z,55.73
2019-05-10T14:12:46.659Z,54.18
2019-05-10T14:17:48.142Z,55.05
2019-05-10T14:22:56.015Z,53.53
2019-05-10T14:27:53.111Z,50.36
2019-05-10T14:32:54.642Z,52.16
2019-05-10T14:38:07.091Z,55.13
2019-05-10T14:42:59.748Z,54.34
2019-05-10T14:48:01.396Z,58.73
2019-05-10T14:53:02.954Z,62.37
2019-05-10T14:58:04.530Z,61.11
2019-05-10T15:03:06.037Z,61.77
2019-05-10T15:08:07.569Z,61.20
2019-05-10T15:13:09.161Z,63.00
2019-05-10T15:18:10.650Z,60.11
2019-05-10T15:23:12.183Z,60.01
2019-05-10T15:28:13.735Z,62.12
2019-05-10T15:33:15.354Z,60.22
2019-05-10T15:38:16.910Z,52.84
2019-05-10T15:43:18.991Z,55.47
2019-05-10T15:48:20.870Z,56.85
2019-05-10T15:53:25.446Z,60.09
2019-05-10T15:58:30.614Z,54.55
2019-05-10T16:03:29.442Z,58.84
2019-05-10T16:08:32.010Z,57.23
2019-05-10T16:13:33.661Z,55.15
2019-05-10T16:18:40.090Z,55.46
2019-05-10T16:23:41.303Z,55.58
2019-05-10T16:28:42.142Z,54.57
2019-05-10T16:33:48.214Z,56.73
2019-05-10T16:38:47.128Z,53.16
2019-05-10T16:43:51.754Z,53.87
2019-05-10T16:48:53.105Z,55.33
2019-05-10T16:53:54.722Z,53.12
2019-05-10T16:58:59.325Z,53.49
2019-05-10T17:04:01.544Z,55.47
2019-05-10T17:09:09.370Z,53.45
2019-05-10T17:14:07.430Z,55.32
2019-05-10T17:19:08.944Z,55.04
2019-05-10T17:24:10.476Z,53.72
2019-05-10T17:29:12.493Z,54.18
2019-05-10T17:34:24.762Z,54.49
2019-05-10T17:39:18.979Z,53.95
2019-05-10T17:44:23.234Z,54.71
2019-05-10T17:49:23.862Z,54.74
2019-05-10T17:54:25.676Z,54.92
2019-05-10T17:59:27.259Z,55.03
2019-05-10T18:04:29.269Z,55.75
2019-05-10T18:09:30.793Z,55.95
2019-05-10T18:14:32.377Z,56.05
2019-05-10T18:19:33.952Z,56.74
2019-05-10T18:24:38.640Z,56.68
2019-05-10T18:29:38.808Z,55.98
2019-05-10T18:34:40.423Z,54.71
2019-05-10T18:39:47.223Z,55.48
2019-05-10T18:44:52.047Z,56.02
2019-05-10T18:49:50.189Z,56.60
2019-05-10T18:54:51.626Z,56.46
2019-05-10T18:59:53.263Z,56.82
2019-05-10T19:04:54.794Z,56.59
2019-05-10T19:09:58.339Z,56.20
2019-05-10T19:15:02.217Z,57.73
2019-05-10T19:20:03.201Z,57.83
2019-05-10T19:25:11.509Z,57.53
2019-05-10T19:30:12.518Z,58.23
2019-05-10T19:35:14.005Z,58.67
2019-05-10T19:40:15.561Z,56.76
2019-05-10T19:45:19.361Z,58.28
2019-05-10T19:50:24.309Z,58.73
2019-05-10T19:55:23.933Z,58.81
2019-05-10T20:00:25.601Z,58.64
2019-05-10T20:05:27.089Z,58.97
2019-05-10T20:10:28.632Z,59.27
2019-05-10T20:15:30.153Z,59.58
2019-05-10T20:20:31.766Z,59.79
2019-05-10T20:25:33.338Z,59.95
2019-05-10T20:30:34.921Z,59.71
2019-05-10T20:35:37.149Z,60.23
2019-05-10T20:40:38.566Z,60.88
2019-05-10T20:45:40.196Z,61.50
2019-05-10T20:50:41.760Z,61.89
2019-05-10T20:55:43.302Z,62.45
2019-05-10T21:00:44.965Z,62.62
2019-05-10T21:05:46.477Z,62.93
2019-05-10T21:10:48.006Z,63.57
2019-05-10T21:15:50.017Z,63.87
2019-05-10T21:20:51.574Z,64.83
2019-05-10T21:25:53.102Z,65.63
2019-05-10T21:30:54.743Z,65.72
2019-05-10T21:35:56.633Z,65.92
2019-05-10T21:40:58.243Z,66.25
2019-05-10T21:45:59.781Z,66.63
2019-05-10T21:51:01.342Z,66.20
2019-05-10T21:56:02.917Z,65.97
2019-05-10T22:01:04.467Z,66.15
2019-05-10T22:06:06.037Z,66.07
2019-05-10T22:11:07.628Z,66.26
2019-05-10T22:16:09.193Z,66.25
2019-05-10T22:21:11.717Z,66.42
2019-05-10T22:26:13.214Z,66.05
2019-05-10T22:31:14.779Z,65.87
2019-05-10T22:36:16.458Z,65.82
2019-05-10T22:41:17.992Z,66.05
2019-05-10T22:46:19.482Z,66.08
2019-05-10T22:51:21.037Z,66.13
2019-05-10T22:56:22.538Z,66.38
2019-05-10T23:01:24.139Z,66.36
2019-05-10T23:06:25.651Z,66.20
2019-05-10T23:11:27.500Z,66.53
2019-05-10T23:16:28.991Z,67.22
2019-05-10T23:21:30.550Z,67.86
2019-05-10T23:26:32.312Z,68.11
2019-05-10T23:31:35.611Z,67.75
2019-05-10T23:36:37.346Z,67.67
2019-05-10T23:41:38.878Z,68.04
2019-05-10T23:46:40.405Z,68.46
2019-05-10T23:51:42.254Z,68.73
2019-05-10T23:56:43.690Z,68.91
